sensor_id;sensor_type;location;lat;lon;timestamp;P1;durP1;ratioP1;P2;durP2;ratioP2
31224;SDS011;17847;31.524;74.366;2023-05-29T00:01:49;4.22;;;2.88;;
31224;SDS011;17847;31.524;74.366;2023-05-29T00:04:18;8.75;;;3.35;;
31224;SDS011;17847;31.524;74.366;2023-05-29T00:06:50;9.15;;;3.42;;
31224;SDS011;17847;31.524;74.366;2023-05-29T00:09:20;11.52;;;3.25;;
31224;SDS011;17847;31.524;74.366;2023-05-29T00:11:49;8.23;;;2.92;;
31224;SDS011;17847;31.524;74.366;2023-05-29T00:14:21;6.80;;;3.20;;
31224;SDS011;17847;31.524;74.366;2023-05-29T00:16:51;8.05;;;3.08;;
31224;SDS011;17847;31.524;74.366;2023-05-29T00:19:21;6.00;;;3.55;;
31224;SDS011;17847;31.524;74.366;2023-05-29T00:21:52;10.90;;;3.47;;
31224;SDS011;17847;31.524;74.366;2023-05-29T00:24:21;11.65;;;3.97;;
31224;SDS011;17847;31.524;74.366;2023-05-29T00:26:50;11.70;;;3.90;;
31224;SDS011;17847;31.524;74.366;2023-05-29T00:29:20;12.23;;;4.50;;
31224;SDS011;17847;31.524;74.366;2023-05-29T00:31:50;16.67;;;5.40;;
31224;SDS011;17847;31.524;74.366;2023-05-29T00:34:22;11.15;;;5.20;;
31224;SDS011;17847;31.524;74.366;2023-05-29T00:36:53;17.83;;;6.60;;
31224;SDS011;17847;31.524;74.366;2023-05-29T00:39:25;21.25;;;6.95;;
31224;SDS011;17847;31.524;74.366;2023-05-29T00:41:55;19.50;;;7.97;;
31224;SDS011;17847;31.524;74.366;2023-05-29T00:44:25;19.13;;;7.47;;
31224;SDS011;17847;31.524;74.366;2023-05-29T00:46:54;18.45;;;7.47;;
31224;SDS011;17847;31.524;74.366;2023-05-29T00:49:24;16.40;;;7.75;;
31224;SDS011;17847;31.524;74.366;2023-05-29T00:51:55;21.58;;;8.43;;
31224;SDS011;17847;31.524;74.366;2023-05-29T00:54:29;22.95;;;7.25;;
31224;SDS011;17847;31.524;74.366;2023-05-29T00:57:02;24.63;;;7.50;;
31224;SDS011;17847;31.524;74.366;2023-05-29T00:59:34;19.73;;;6.65;;
31224;SDS011;17847;31.524;74.366;2023-05-29T01:02:03;18.83;;;6.35;;
31224;SDS011;17847;31.524;74.366;2023-05-29T01:04:34;18.48;;;6.57;;
31224;SDS011;17847;31.524;74.366;2023-05-29T01:07:04;15.43;;;7.43;;
31224;SDS011;17847;31.524;74.366;2023-05-29T01:09:35;22.55;;;8.68;;
31224;SDS011;17847;31.524;74.366;2023-05-29T01:29:34;26.08;;;11.90;;
31224;SDS011;17847;31.524;74.366;2023-05-29T01:32:06;30.73;;;13.25;;
31224;SDS011;17847;31.524;74.366;2023-05-29T01:34:37;25.05;;;12.32;;
31224;SDS011;17847;31.524;74.366;2023-05-29T01:37:06;22.23;;;12.70;;
31224;SDS011;17847;31.524;74.366;2023-05-29T01:39:36;28.63;;;11.95;;
31224;SDS011;17847;31.524;74.366;2023-05-29T01:42:05;26.10;;;11.27;;
31224;SDS011;17847;31.524;74.366;2023-05-29T01:44:36;31.55;;;11.75;;
31224;SDS011;17847;31.524;74.366;2023-05-29T01:47:07;25.73;;;12.27;;
31224;SDS011;17847;31.524;74.366;2023-05-29T01:49:37;30.40;;;11.85;;
31224;SDS011;17847;31.524;74.366;2023-05-29T01:52:07;27.20;;;11.50;;
31224;SDS011;17847;31.524;74.366;2023-05-29T01:54:38;25.58;;;11.50;;
31224;SDS011;17847;31.524;74.366;2023-05-29T01:57:08;25.55;;;10.82;;
31224;SDS011;17847;31.524;74.366;2023-05-29T01:59:39;29.45;;;11.27;;
31224;SDS011;17847;31.524;74.366;2023-05-29T02:02:10;22.83;;;10.70;;
31224;SDS011;17847;31.524;74.366;2023-05-29T02:04:40;29.30;;;11.75;;
31224;SDS011;17847;31.524;74.366;2023-05-29T02:07:10;21.23;;;10.70;;
31224;SDS011;17847;31.524;74.366;2023-05-29T02:09:40;22.92;;;10.05;;
31224;SDS011;17847;31.524;74.366;2023-05-29T02:12:10;24.58;;;9.98;;
31224;SDS011;17847;31.524;74.366;2023-05-29T02:14:39;14.88;;;9.00;;
31224;SDS011;17847;31.524;74.366;2023-05-29T02:17:09;14.85;;;9.40;;
31224;SDS011;17847;31.524;74.366;2023-05-29T02:19:39;15.73;;;8.98;;
31224;SDS011;17847;31.524;74.366;2023-05-29T02:22:08;14.75;;;8.30;;
31224;SDS011;17847;31.524;74.366;2023-05-29T02:24:37;19.92;;;9.27;;
31224;SDS011;17847;31.524;74.366;2023-05-29T02:27:07;16.08;;;9.75;;
31224;SDS011;17847;31.524;74.366;2023-05-29T02:29:37;13.45;;;8.98;;
31224;SDS011;17847;31.524;74.366;2023-05-29T02:32:06;14.60;;;9.23;;
31224;SDS011;17847;31.524;74.366;2023-05-29T02:34:36;14.75;;;8.77;;
31224;SDS011;17847;31.524;74.366;2023-05-29T02:37:05;13.07;;;8.63;;
31224;SDS011;17847;31.524;74.366;2023-05-29T02:39:34;20.75;;;9.48;;
31224;SDS011;17847;31.524;74.366;2023-05-29T02:42:05;12.88;;;7.65;;
31224;SDS011;17847;31.524;74.366;2023-05-29T02:44:34;22.38;;;8.77;;
31224;SDS011;17847;31.524;74.366;2023-05-29T02:47:04;19.92;;;9.20;;
31224;SDS011;17847;31.524;74.366;2023-05-29T02:49:34;15.90;;;8.95;;
31224;SDS011;17847;31.524;74.366;2023-05-29T02:52:04;14.02;;;8.77;;
31224;SDS011;17847;31.524;74.366;2023-05-29T02:54:34;19.85;;;8.35;;
31224;SDS011;17847;31.524;74.366;2023-05-29T02:57:03;22.20;;;9.23;;
31224;SDS011;17847;31.524;74.366;2023-05-29T02:59:33;24.65;;;9.10;;
31224;SDS011;17847;31.524;74.366;2023-05-29T03:02:02;18.25;;;8.63;;
31224;SDS011;17847;31.524;74.366;2023-05-29T03:04:32;13.77;;;8.23;;
31224;SDS011;17847;31.524;74.366;2023-05-29T03:07:01;14.77;;;8.32;;
31224;SDS011;17847;31.524;74.366;2023-05-29T03:09:31;90.28;;;47.42;;
31224;SDS011;17847;31.524;74.366;2023-05-29T03:12:00;156.80;;;85.88;;
31224;SDS011;17847;31.524;74.366;2023-05-29T03:14:29;81.75;;;42.50;;
31224;SDS011;17847;31.524;74.366;2023-05-29T03:17:08;73.32;;;37.22;;
31224;SDS011;17847;31.524;74.366;2023-05-29T03:19:38;84.45;;;40.85;;
31224;SDS011;17847;31.524;74.366;2023-05-29T03:22:08;56.10;;;27.80;;
31224;SDS011;17847;31.524;74.366;2023-05-29T03:24:39;33.95;;;17.92;;
31224;SDS011;17847;31.524;74.366;2023-05-29T03:27:09;25.45;;;12.27;;
31224;SDS011;17847;31.524;74.366;2023-05-29T03:29:38;21.48;;;11.20;;
31224;SDS011;17847;31.524;74.366;2023-05-29T03:32:08;18.38;;;10.13;;
31224;SDS011;17847;31.524;74.366;2023-05-29T03:34:38;19.23;;;9.73;;
31224;SDS011;17847;31.524;74.366;2023-05-29T03:37:08;20.40;;;9.82;;
31224;SDS011;17847;31.524;74.366;2023-05-29T03:39:39;20.63;;;9.45;;
31224;SDS011;17847;31.524;74.366;2023-05-29T03:42:09;22.00;;;9.48;;
31224;SDS011;17847;31.524;74.366;2023-05-29T03:44:38;21.00;;;9.00;;
31224;SDS011;17847;31.524;74.366;2023-05-29T03:47:09;17.77;;;8.80;;
31224;SDS011;17847;31.524;74.366;2023-05-29T03:49:40;17.42;;;9.23;;
31224;SDS011;17847;31.524;74.366;2023-05-29T03:52:09;19.80;;;9.48;;
31224;SDS011;17847;31.524;74.366;2023-05-29T03:54:38;19.90;;;9.18;;
31224;SDS011;17847;31.524;74.366;2023-05-29T03:57:08;24.48;;;13.20;;
31224;SDS011;17847;31.524;74.366;2023-05-29T03:59:37;24.40;;;14.13;;
31224;SDS011;17847;31.524;74.366;2023-05-29T04:02:08;22.13;;;10.98;;
31224;SDS011;17847;31.524;74.366;2023-05-29T04:07:11;26.88;;;12.35;;
31224;SDS011;17847;31.524;74.366;2023-05-29T04:09:41;36.35;;;12.07;;
31224;SDS011;17847;31.524;74.366;2023-05-29T04:12:11;28.25;;;12.73;;
31224;SDS011;17847;31.524;74.366;2023-05-29T04:14:41;28.42;;;12.55;;
31224;SDS011;17847;31.524;74.366;2023-05-29T04:17:12;24.92;;;12.63;;
31224;SDS011;17847;31.524;74.366;2023-05-29T04:19:42;22.20;;;12.43;;
31224;SDS011;17847;31.524;74.366;2023-05-29T04:22:12;25.38;;;11.80;;
31224;SDS011;17847;31.524;74.366;2023-05-29T04:24:41;24.75;;;10.90;;
31224;SDS011;17847;31.524;74.366;2023-05-29T04:27:10;24.67;;;10.48;;
31224;SDS011;17847;31.524;74.366;2023-05-29T04:29:41;24.70;;;11.43;;
31224;SDS011;17847;31.524;74.366;2023-05-29T04:32:12;37.53;;;10.75;;
31224;SDS011;17847;31.524;74.366;2023-05-29T04:34:41;24.95;;;10.57;;
31224;SDS011;17847;31.524;74.366;2023-05-29T04:37:15;33.38;;;12.23;;
31224;SDS011;17847;31.524;74.366;2023-05-29T04:39:44;27.95;;;9.85;;
31224;SDS011;17847;31.524;74.366;2023-05-29T04:42:20;29.42;;;10.40;;
31224;SDS011;17847;31.524;74.366;2023-05-29T04:44:51;21.63;;;10.07;;
31224;SDS011;17847;31.524;74.366;2023-05-29T04:47:22;30.95;;;9.65;;
31224;SDS011;17847;31.524;74.366;2023-05-29T04:49:51;19.52;;;9.02;;
31224;SDS011;17847;31.524;74.366;2023-05-29T04:52:23;27.85;;;9.68;;
31224;SDS011;17847;31.524;74.366;2023-05-29T04:54:55;19.15;;;8.65;;
31224;SDS011;17847;31.524;74.366;2023-05-29T04:57:25;21.15;;;10.35;;
31224;SDS011;17847;31.524;74.366;2023-05-29T04:59:55;24.73;;;9.70;;
31224;SDS011;17847;31.524;74.366;2023-05-29T05:02:25;20.63;;;9.15;;
31224;SDS011;17847;31.524;74.366;2023-05-29T05:04:55;18.27;;;9.35;;
31224;SDS011;17847;31.524;74.366;2023-05-29T05:07:26;23.33;;;9.70;;
31224;SDS011;17847;31.524;74.366;2023-05-29T05:09:55;20.48;;;8.63;;
31224;SDS011;17847;31.524;74.366;2023-05-29T05:12:27;18.88;;;8.93;;
31224;SDS011;17847;31.524;74.366;2023-05-29T05:14:56;32.78;;;9.60;;
31224;SDS011;17847;31.524;74.366;2023-05-29T05:17:26;24.80;;;8.70;;
31224;SDS011;17847;31.524;74.366;2023-05-29T05:19:56;19.23;;;8.80;;
31224;SDS011;17847;31.524;74.366;2023-05-29T05:22:26;20.08;;;8.90;;
31224;SDS011;17847;31.524;74.366;2023-05-29T05:24:56;15.63;;;8.48;;
31224;SDS011;17847;31.524;74.366;2023-05-29T05:27:26;22.75;;;7.82;;
31224;SDS011;17847;31.524;74.366;2023-05-29T05:29:56;19.13;;;8.55;;
31224;SDS011;17847;31.524;74.366;2023-05-29T05:32:25;30.58;;;10.20;;
31224;SDS011;17847;31.524;74.366;2023-05-29T05:35:02;21.25;;;8.95;;
31224;SDS011;17847;31.524;74.366;2023-05-29T05:37:32;20.98;;;8.38;;
31224;SDS011;17847;31.524;74.366;2023-05-29T05:40:03;22.20;;;8.30;;
31224;SDS011;17847;31.524;74.366;2023-05-29T05:42:43;21.85;;;9.25;;
31224;SDS011;17847;31.524;74.366;2023-05-29T05:45:13;20.38;;;8.57;;
31224;SDS011;17847;31.524;74.366;2023-05-29T05:47:43;23.25;;;9.80;;
31224;SDS011;17847;31.524;74.366;2023-05-29T05:50:12;23.38;;;10.32;;
31224;SDS011;17847;31.524;74.366;2023-05-29T05:52:43;25.80;;;8.52;;
31224;SDS011;17847;31.524;74.366;2023-05-29T05:55:13;23.73;;;9.18;;
31224;SDS011;17847;31.524;74.366;2023-05-29T05:57:43;21.02;;;10.02;;
31224;SDS011;17847;31.524;74.366;2023-05-29T06:00:13;19.83;;;10.23;;
31224;SDS011;17847;31.524;74.366;2023-05-29T06:02:43;20.90;;;11.20;;
31224;SDS011;17847;31.524;74.366;2023-05-29T06:05:27;20.30;;;10.07;;
31224;SDS011;17847;31.524;74.366;2023-05-29T06:07:57;18.05;;;9.75;;
31224;SDS011;17847;31.524;74.366;2023-05-29T06:10:26;24.85;;;10.27;;
31224;SDS011;17847;31.524;74.366;2023-05-29T06:12:56;20.23;;;11.32;;
31224;SDS011;17847;31.524;74.366;2023-05-29T06:15:38;20.10;;;10.63;;
31224;SDS011;17847;31.524;74.366;2023-05-29T06:18:08;27.20;;;11.18;;
31224;SDS011;17847;31.524;74.366;2023-05-29T06:20:38;23.55;;;11.27;;
31224;SDS011;17847;31.524;74.366;2023-05-29T06:23:07;24.00;;;11.70;;
31224;SDS011;17847;31.524;74.366;2023-05-29T06:25:37;26.52;;;11.45;;
31224;SDS011;17847;31.524;74.366;2023-05-29T06:28:07;25.02;;;11.85;;
31224;SDS011;17847;31.524;74.366;2023-05-29T06:30:36;25.80;;;12.70;;
31224;SDS011;17847;31.524;74.366;2023-05-29T06:33:08;24.23;;;11.40;;
31224;SDS011;17847;31.524;74.366;2023-05-29T06:35:39;27.60;;;12.10;;
31224;SDS011;17847;31.524;74.366;2023-05-29T06:38:09;27.40;;;12.73;;
31224;SDS011;17847;31.524;74.366;2023-05-29T06:40:39;20.25;;;11.75;;
31224;SDS011;17847;31.524;74.366;2023-05-29T06:43:08;24.42;;;12.32;;
31224;SDS011;17847;31.524;74.366;2023-05-29T06:45:45;21.60;;;11.75;;
31224;SDS011;17847;31.524;74.366;2023-05-29T06:48:16;28.13;;;12.10;;
31224;SDS011;17847;31.524;74.366;2023-05-29T06:50:47;24.40;;;12.35;;
31224;SDS011;17847;31.524;74.366;2023-05-29T06:53:48;33.17;;;12.63;;
31224;SDS011;17847;31.524;74.366;2023-05-29T06:56:18;27.95;;;13.27;;
31224;SDS011;17847;31.524;74.366;2023-05-29T06:58:49;29.23;;;13.40;;
31224;SDS011;17847;31.524;74.366;2023-05-29T07:04:27;27.20;;;10.80;;
31224;SDS011;17847;31.524;74.366;2023-05-29T07:06:57;20.40;;;9.60;;
31224;SDS011;17847;31.524;74.366;2023-05-29T07:09:26;17.45;;;8.68;;
31224;SDS011;17847;31.524;74.366;2023-05-29T07:11:57;34.90;;;10.13;;
31224;SDS011;17847;31.524;74.366;2023-05-29T07:14:26;20.38;;;10.20;;
31224;SDS011;17847;31.524;74.366;2023-05-29T07:16:56;20.45;;;9.20;;
31224;SDS011;17847;31.524;74.366;2023-05-29T07:19:27;25.48;;;9.23;;
31224;SDS011;17847;31.524;74.366;2023-05-29T07:21:57;25.35;;;9.10;;
31224;SDS011;17847;31.524;74.366;2023-05-29T07:24:27;22.52;;;9.00;;
31224;SDS011;17847;31.524;74.366;2023-05-29T07:26:57;18.23;;;9.13;;
31224;SDS011;17847;31.524;74.366;2023-05-29T07:29:26;26.48;;;9.57;;
31224;SDS011;17847;31.524;74.366;2023-05-29T07:31:56;19.38;;;9.05;;
31224;SDS011;17847;31.524;74.366;2023-05-29T07:34:25;25.10;;;8.68;;
31224;SDS011;17847;31.524;74.366;2023-05-29T07:39:36;18.38;;;8.30;;
31224;SDS011;17847;31.524;74.366;2023-05-29T07:42:23;14.80;;;7.45;;
31224;SDS011;17847;31.524;74.366;2023-05-29T07:44:52;18.45;;;6.95;;
31224;SDS011;17847;31.524;74.366;2023-05-29T07:47:23;19.38;;;7.28;;
31224;SDS011;17847;31.524;74.366;2023-05-29T07:49:53;18.17;;;6.70;;
31224;SDS011;17847;31.524;74.366;2023-05-29T07:52:25;16.73;;;7.50;;
31224;SDS011;17847;31.524;74.366;2023-05-29T07:54:55;27.92;;;8.40;;
31224;SDS011;17847;31.524;74.366;2023-05-29T07:57:24;22.40;;;7.93;;
31224;SDS011;17847;31.524;74.366;2023-05-29T07:59:56;26.80;;;8.50;;
31224;SDS011;17847;31.524;74.366;2023-05-29T08:02:27;13.95;;;6.43;;
31224;SDS011;17847;31.524;74.366;2023-05-29T08:05:35;16.98;;;5.95;;
31224;SDS011;17847;31.524;74.366;2023-05-29T08:08:12;16.38;;;6.72;;
31224;SDS011;17847;31.524;74.366;2023-05-29T08:10:42;16.23;;;6.35;;
31224;SDS011;17847;31.524;74.366;2023-05-29T08:13:11;19.17;;;6.93;;
31224;SDS011;17847;31.524;74.366;2023-05-29T08:15:43;20.42;;;7.10;;
31224;SDS011;17847;31.524;74.366;2023-05-29T08:18:12;22.77;;;8.02;;
31224;SDS011;17847;31.524;74.366;2023-05-29T08:20:42;19.38;;;6.90;;
31224;SDS011;17847;31.524;74.366;2023-05-29T08:23:13;14.95;;;6.75;;
31224;SDS011;17847;31.524;74.366;2023-05-29T08:25:43;14.82;;;6.63;;
31224;SDS011;17847;31.524;74.366;2023-05-29T08:28:12;16.52;;;6.65;;
31224;SDS011;17847;31.524;74.366;2023-05-29T08:30:42;16.88;;;6.60;;
31224;SDS011;17847;31.524;74.366;2023-05-29T08:33:12;13.77;;;5.70;;
31224;SDS011;17847;31.524;74.366;2023-05-29T08:35:41;13.40;;;6.05;;
31224;SDS011;17847;31.524;74.366;2023-05-29T08:38:10;15.20;;;6.25;;
31224;SDS011;17847;31.524;74.366;2023-05-29T08:40:40;17.45;;;6.40;;
31224;SDS011;17847;31.524;74.366;2023-05-29T08:43:52;19.33;;;5.85;;
31224;SDS011;17847;31.524;74.366;2023-05-29T08:48:32;18.80;;;5.70;;
31224;SDS011;17847;31.524;74.366;2023-05-29T08:51:04;16.50;;;5.47;;
31224;SDS011;17847;31.524;74.366;2023-05-29T08:53:36;15.25;;;5.70;;
31224;SDS011;17847;31.524;74.366;2023-05-29T08:56:07;11.40;;;5.80;;
31224;SDS011;17847;31.524;74.366;2023-05-29T08:58:46;15.73;;;6.22;;
31224;SDS011;17847;31.524;74.366;2023-05-29T09:01:16;11.05;;;5.78;;
31224;SDS011;17847;31.524;74.366;2023-05-29T09:03:46;24.02;;;6.68;;
31224;SDS011;17847;31.524;74.366;2023-05-29T09:06:16;14.55;;;6.32;;
31224;SDS011;17847;31.524;74.366;2023-05-29T09:08:47;15.65;;;6.63;;
31224;SDS011;17847;31.524;74.366;2023-05-29T09:11:16;19.52;;;6.25;;
31224;SDS011;17847;31.524;74.366;2023-05-29T09:13:46;16.85;;;7.07;;
31224;SDS011;17847;31.524;74.366;2023-05-29T09:16:16;14.88;;;7.05;;
31224;SDS011;17847;31.524;74.366;2023-05-29T09:18:46;18.00;;;7.40;;
31224;SDS011;17847;31.524;74.366;2023-05-29T09:21:27;16.38;;;7.60;;
31224;SDS011;17847;31.524;74.366;2023-05-29T09:24:04;13.10;;;7.25;;
31224;SDS011;17847;31.524;74.366;2023-05-29T09:26:37;17.00;;;7.50;;
31224;SDS011;17847;31.524;74.366;2023-05-29T09:29:09;14.27;;;7.18;;
31224;SDS011;17847;31.524;74.366;2023-05-29T09:31:42;18.13;;;7.38;;
31224;SDS011;17847;31.524;74.366;2023-05-29T09:34:16;12.82;;;6.45;;
31224;SDS011;17847;31.524;74.366;2023-05-29T09:36:45;11.93;;;6.40;;
31224;SDS011;17847;31.524;74.366;2023-05-29T09:39:14;14.35;;;6.70;;
31224;SDS011;17847;31.524;74.366;2023-05-29T09:41:45;16.20;;;6.30;;
31224;SDS011;17847;31.524;74.366;2023-05-29T09:44:16;15.93;;;6.95;;
31224;SDS011;17847;31.524;74.366;2023-05-29T09:46:46;19.25;;;6.45;;
31224;SDS011;17847;31.524;74.366;2023-05-29T09:49:18;22.52;;;7.05;;
31224;SDS011;17847;31.524;74.366;2023-05-29T09:51:54;11.38;;;6.22;;
31224;SDS011;17847;31.524;74.366;2023-05-29T09:59:30;13.65;;;5.97;;
31224;SDS011;17847;31.524;74.366;2023-05-29T10:02:02;17.60;;;6.93;;
31224;SDS011;17847;31.524;74.366;2023-05-29T10:04:35;14.73;;;6.05;;
31224;SDS011;17847;31.524;74.366;2023-05-29T10:07:08;15.83;;;6.17;;
31224;SDS011;17847;31.524;74.366;2023-05-29T10:10:03;19.98;;;5.80;;
31224;SDS011;17847;31.524;74.366;2023-05-29T10:12:37;16.15;;;5.38;;
31224;SDS011;17847;31.524;74.366;2023-05-29T10:15:14;17.48;;;4.85;;
31224;SDS011;17847;31.524;74.366;2023-05-29T10:17:48;12.93;;;4.78;;
31224;SDS011;17847;31.524;74.366;2023-05-29T10:20:41;14.02;;;5.18;;
31224;SDS011;17847;31.524;74.366;2023-05-29T10:23:13;14.05;;;5.07;;
31224;SDS011;17847;31.524;74.366;2023-05-29T10:25:44;13.57;;;4.25;;
31224;SDS011;17847;31.524;74.366;2023-05-29T10:28:18;15.68;;;4.20;;
31224;SDS011;17847;31.524;74.366;2023-05-29T10:31:10;13.77;;;3.50;;
31224;SDS011;17847;31.524;74.366;2023-05-29T10:33:54;15.38;;;4.05;;
31224;SDS011;17847;31.524;74.366;2023-05-29T10:36:35;15.38;;;4.63;;
31224;SDS011;17847;31.524;74.366;2023-05-29T10:39:10;12.95;;;3.78;;
31224;SDS011;17847;31.524;74.366;2023-05-29T10:41:40;19.25;;;4.25;;
31224;SDS011;17847;31.524;74.366;2023-05-29T10:44:37;17.84;;;3.70;;
31224;SDS011;17847;31.524;74.366;2023-05-29T10:47:07;11.30;;;3.53;;
31224;SDS011;17847;31.524;74.366;2023-05-29T10:49:44;12.32;;;3.90;;
31224;SDS011;17847;31.524;74.366;2023-05-29T10:52:26;13.32;;;3.60;;
31224;SDS011;17847;31.524;74.366;2023-05-29T10:54:59;13.88;;;4.32;;
31224;SDS011;17847;31.524;74.366;2023-05-29T10:57:32;6.85;;;3.80;;
31224;SDS011;17847;31.524;74.366;2023-05-29T11:00:05;14.63;;;4.28;;
31224;SDS011;17847;31.524;74.366;2023-05-29T11:02:40;11.50;;;3.78;;
31224;SDS011;17847;31.524;74.366;2023-05-29T11:05:22;10.38;;;3.60;;
31224;SDS011;17847;31.524;74.366;2023-05-29T11:07:57;13.15;;;3.95;;
31224;SDS011;17847;31.524;74.366;2023-05-29T11:10:41;15.10;;;4.13;;
31224;SDS011;17847;31.524;74.366;2023-05-29T11:13:32;10.60;;;4.10;;
31224;SDS011;17847;31.524;74.366;2023-05-29T11:18:52;13.00;;;3.90;;
31224;SDS011;17847;31.524;74.366;2023-05-29T11:24:13;15.93;;;4.35;;
31224;SDS011;17847;31.524;74.366;2023-05-29T11:26:55;17.50;;;3.70;;
31224;SDS011;17847;31.524;74.366;2023-05-29T11:29:28;9.88;;;3.60;;
31224;SDS011;17847;31.524;74.366;2023-05-29T11:31:59;11.13;;;4.05;;
31224;SDS011;17847;31.524;74.366;2023-05-29T11:34:34;10.48;;;3.47;;
31224;SDS011;17847;31.524;74.366;2023-05-29T11:37:07;14.75;;;3.65;;
31224;SDS011;17847;31.524;74.366;2023-05-29T11:39:37;13.63;;;3.55;;
31224;SDS011;17847;31.524;74.366;2023-05-29T11:42:08;16.50;;;4.50;;
31224;SDS011;17847;31.524;74.366;2023-05-29T11:44:37;10.73;;;3.95;;
31224;SDS011;17847;31.524;74.366;2023-05-29T11:47:06;10.50;;;3.85;;
31224;SDS011;17847;31.524;74.366;2023-05-29T11:49:36;13.40;;;3.72;;
31224;SDS011;17847;31.524;74.366;2023-05-29T11:52:13;10.95;;;4.38;;
31224;SDS011;17847;31.524;74.366;2023-05-29T11:54:44;14.85;;;3.90;;
31224;SDS011;17847;31.524;74.366;2023-05-29T11:57:17;12.43;;;4.22;;
31224;SDS011;17847;31.524;74.366;2023-05-29T11:59:50;16.38;;;4.35;;
31224;SDS011;17847;31.524;74.366;2023-05-29T12:02:30;12.30;;;3.53;;
31224;SDS011;17847;31.524;74.366;2023-05-29T12:05:01;12.68;;;3.75;;
31224;SDS011;17847;31.524;74.366;2023-05-29T12:07:33;9.32;;;3.33;;
31224;SDS011;17847;31.524;74.366;2023-05-29T12:10:09;17.65;;;4.95;;
31224;SDS011;17847;31.524;74.366;2023-05-29T12:13:04;11.68;;;3.80;;
31224;SDS011;17847;31.524;74.366;2023-05-29T12:15:32;10.82;;;3.80;;
31224;SDS011;17847;31.524;74.366;2023-05-29T12:18:01;11.30;;;3.83;;
31224;SDS011;17847;31.524;74.366;2023-05-29T12:20:31;10.77;;;3.40;;
31224;SDS011;17847;31.524;74.366;2023-05-29T12:23:01;12.60;;;3.83;;
31224;SDS011;17847;31.524;74.366;2023-05-29T12:25:34;37.22;;;7.13;;
31224;SDS011;17847;31.524;74.366;2023-05-29T12:28:06;67.60;;;9.23;;
31224;SDS011;17847;31.524;74.366;2023-05-29T12:30:37;46.50;;;7.45;;
31224;SDS011;17847;31.524;74.366;2023-05-29T12:33:07;51.03;;;8.27;;
31224;SDS011;17847;31.524;74.366;2023-05-29T12:35:37;52.85;;;8.57;;
31224;SDS011;17847;31.524;74.366;2023-05-29T12:38:06;25.67;;;7.43;;
31224;SDS011;17847;31.524;74.366;2023-05-29T12:40:40;33.55;;;7.68;;
31224;SDS011;17847;31.524;74.366;2023-05-29T12:43:09;37.70;;;7.43;;
31224;SDS011;17847;31.524;74.366;2023-05-29T12:45:38;33.25;;;7.85;;
31224;SDS011;17847;31.524;74.366;2023-05-29T12:48:08;25.13;;;7.10;;
31224;SDS011;17847;31.524;74.366;2023-05-29T12:50:39;34.42;;;7.88;;
31224;SDS011;17847;31.524;74.366;2023-05-29T12:53:12;23.60;;;6.65;;
31224;SDS011;17847;31.524;74.366;2023-05-29T12:55:43;27.48;;;7.40;;
31224;SDS011;17847;31.524;74.366;2023-05-29T12:58:15;16.83;;;6.38;;
31224;SDS011;17847;31.524;74.366;2023-05-29T13:00:45;19.08;;;6.50;;
31224;SDS011;17847;31.524;74.366;2023-05-29T13:03:14;30.80;;;7.00;;
31224;SDS011;17847;31.524;74.366;2023-05-29T13:05:44;26.23;;;6.22;;
31224;SDS011;17847;31.524;74.366;2023-05-29T13:08:13;20.67;;;6.82;;
31224;SDS011;17847;31.524;74.366;2023-05-29T13:10:43;20.58;;;6.15;;
31224;SDS011;17847;31.524;74.366;2023-05-29T13:13:14;25.25;;;6.07;;
31224;SDS011;17847;31.524;74.366;2023-05-29T13:15:44;19.48;;;6.55;;
31224;SDS011;17847;31.524;74.366;2023-05-29T13:18:13;19.48;;;6.32;;
31224;SDS011;17847;31.524;74.366;2023-05-29T13:20:43;18.50;;;6.75;;
31224;SDS011;17847;31.524;74.366;2023-05-29T13:23:12;16.45;;;5.97;;
31224;SDS011;17847;31.524;74.366;2023-05-29T13:25:41;22.05;;;7.57;;
31224;SDS011;17847;31.524;74.366;2023-05-29T13:28:12;19.90;;;6.78;;
31224;SDS011;17847;31.524;74.366;2023-05-29T13:30:41;15.52;;;7.15;;
31224;SDS011;17847;31.524;74.366;2023-05-29T13:33:10;26.23;;;7.88;;
31224;SDS011;17847;31.524;74.366;2023-05-29T13:35:41;16.65;;;7.57;;
31224;SDS011;17847;31.524;74.366;2023-05-29T13:38:10;24.50;;;8.73;;
31224;SDS011;17847;31.524;74.366;2023-05-29T13:40:40;23.40;;;9.27;;
31224;SDS011;17847;31.524;74.366;2023-05-29T13:43:09;19.30;;;9.50;;
31224;SDS011;17847;31.524;74.366;2023-05-29T13:45:38;17.90;;;9.82;;
31224;SDS011;17847;31.524;74.366;2023-05-29T13:48:08;26.80;;;9.52;;
31224;SDS011;17847;31.524;74.366;2023-05-29T13:50:38;22.48;;;9.48;;
31224;SDS011;17847;31.524;74.366;2023-05-29T13:53:07;25.30;;;10.35;;
31224;SDS011;17847;31.524;74.366;2023-05-29T13:55:37;18.08;;;9.52;;
31224;SDS011;17847;31.524;74.366;2023-05-29T13:58:06;27.83;;;9.90;;
31224;SDS011;17847;31.524;74.366;2023-05-29T14:00:36;17.90;;;10.20;;
31224;SDS011;17847;31.524;74.366;2023-05-29T14:03:06;22.83;;;10.05;;
31224;SDS011;17847;31.524;74.366;2023-05-29T14:05:36;17.27;;;9.02;;
31224;SDS011;17847;31.524;74.366;2023-05-29T14:08:06;17.60;;;9.77;;
31224;SDS011;17847;31.524;74.366;2023-05-29T14:10:35;15.02;;;9.40;;
31224;SDS011;17847;31.524;74.366;2023-05-29T14:13:04;23.92;;;9.43;;
31224;SDS011;17847;31.524;74.366;2023-05-29T14:15:34;16.67;;;9.27;;
31224;SDS011;17847;31.524;74.366;2023-05-29T14:18:07;17.08;;;9.25;;
31224;SDS011;17847;31.524;74.366;2023-05-29T14:20:36;20.00;;;9.60;;
31224;SDS011;17847;31.524;74.366;2023-05-29T14:23:06;21.63;;;10.27;;
31224;SDS011;17847;31.524;74.366;2023-05-29T14:25:42;16.70;;;10.10;;
31224;SDS011;17847;31.524;74.366;2023-05-29T14:28:12;21.70;;;9.77;;
31224;SDS011;17847;31.524;74.366;2023-05-29T14:30:41;14.10;;;9.70;;
31224;SDS011;17847;31.524;74.366;2023-05-29T14:33:11;14.85;;;9.57;;
31224;SDS011;17847;31.524;74.366;2023-05-29T14:35:40;20.83;;;10.75;;
31224;SDS011;17847;31.524;74.366;2023-05-29T14:38:10;17.75;;;10.88;;
31224;SDS011;17847;31.524;74.366;2023-05-29T14:40:39;16.65;;;10.18;;
31224;SDS011;17847;31.524;74.366;2023-05-29T14:43:11;22.92;;;10.80;;
31224;SDS011;17847;31.524;74.366;2023-05-29T14:45:40;18.25;;;10.82;;
31224;SDS011;17847;31.524;74.366;2023-05-29T14:48:09;17.63;;;10.75;;
31224;SDS011;17847;31.524;74.366;2023-05-29T14:50:39;29.88;;;11.40;;
31224;SDS011;17847;31.524;74.366;2023-05-29T14:53:08;23.42;;;10.95;;
31224;SDS011;17847;31.524;74.366;2023-05-29T14:55:38;26.48;;;12.43;;
31224;SDS011;17847;31.524;74.366;2023-05-29T14:58:07;23.27;;;11.63;;
31224;SDS011;17847;31.524;74.366;2023-05-29T15:00:36;22.17;;;12.57;;
31224;SDS011;17847;31.524;74.366;2023-05-29T15:03:05;17.77;;;12.95;;
31224;SDS011;17847;31.524;74.366;2023-05-29T15:05:35;23.40;;;13.50;;
31224;SDS011;17847;31.524;74.366;2023-05-29T15:08:04;21.65;;;13.73;;
31224;SDS011;17847;31.524;74.366;2023-05-29T15:10:33;25.40;;;14.20;;
31224;SDS011;17847;31.524;74.366;2023-05-29T15:13:04;24.25;;;13.70;;
31224;SDS011;17847;31.524;74.366;2023-05-29T15:15:35;27.63;;;14.60;;
31224;SDS011;17847;31.524;74.366;2023-05-29T15:18:25;25.42;;;13.18;;
31224;SDS011;17847;31.524;74.366;2023-05-29T15:20:56;27.52;;;13.73;;
31224;SDS011;17847;31.524;74.366;2023-05-29T15:23:26;23.23;;;12.63;;